Time;durP1;ratioP1;P1;durP2;ratioP2;P2;SDS_P1;SDS_P2;PMS_P1;PMS_P2;Temp;Humidity;BMP_temperature;BMP_pressure;BME280_temperature;BME280_humidity;BME280_pressure;Samples;Min_cycle;Max_cycle;Signal;HPM_P1;HPM_P2
2023/07/24 00:02:15;;;;;;;3.05;2.83;;;;;;;18.18;90.70;100437.53;5054614;28;20065;-76
2023/07/24 00:04:41;;;;;;;2.90;2.70;;;;;;;18.17;90.87;100434.97;5044775;28;20061;-76
2023/07/24 00:07:06;;;;;;;4.55;3.08;;;;;;;18.17;90.57;100430.53;5034470;28;20111;-76
2023/07/24 00:09:32;;;;;;;3.75;2.78;;;;;;;18.15;90.55;100424.50;5038474;28;20104;-76
2023/07/24 00:11:57;;;;;;;2.80;2.60;;;;;;;18.14;90.62;100414.88;5055651;28;20024;-76
2023/07/24 00:14:23;;;;;;;3.28;3.00;;;;;;;18.15;90.70;100415.72;5054527;28;20088;-76
2023/07/24 00:16:48;;;;;;;2.65;2.45;;;;;;;18.14;90.63;100424.66;5055544;28;20117;-76
2023/07/24 00:19:13;;;;;;;2.70;2.50;;;;;;;18.13;90.73;100421.13;5055257;28;20064;-76
2023/07/24 00:21:39;;;;;;;2.85;2.55;;;;;;;18.13;90.86;100425.59;5055361;28;20074;-76
2023/07/24 00:24:04;;;;;;;3.00;2.30;;;;;;;18.11;90.63;100412.47;5055346;28;20355;-76
2023/07/24 00:26:30;;;;;;;2.92;2.65;;;;;;;18.10;90.68;100416.09;5054944;28;20040;-76
2023/07/24 00:28:55;;;;;;;3.30;2.75;;;;;;;18.10;90.69;100408.16;5055722;28;20063;-76
2023/07/24 00:31:20;;;;;;;3.13;2.90;;;;;;;18.10;90.71;100405.50;5054600;28;20017;-76
2023/07/24 00:33:46;;;;;;;3.13;2.92;;;;;;;18.09;90.76;100393.19;5053538;28;20047;-76
2023/07/24 00:36:11;;;;;;;2.80;2.60;;;;;;;18.09;90.82;100384.41;5034581;28;20033;-76
2023/07/24 00:38:37;;;;;;;4.47;3.28;;;;;;;18.08;90.95;100380.94;5034987;28;20124;-76
2023/07/24 00:41:02;;;;;;;3.17;2.90;;;;;;;18.08;90.80;100390.66;5051594;28;20032;-76
2023/07/24 00:43:27;;;;;;;3.05;2.78;;;;;;;18.06;90.81;100382.84;5054537;28;20267;-76
2023/07/24 00:45:55;;;;;;;3.13;2.90;;;;;;;18.04;91.04;100392.72;5054929;28;20105;-76
2023/07/24 00:48:20;;;;;;;5.18;2.97;;;;;;;18.04;91.00;100390.06;5054385;28;20409;-76
2023/07/24 00:50:46;;;;;;;2.88;2.67;;;;;;;18.02;90.85;100374.28;5054953;28;20033;-76
2023/07/24 00:53:13;;;;;;;4.15;3.08;;;;;;;18.02;91.13;100374.28;5054777;28;20020;-76
2023/07/24 00:55:40;;;;;;;2.90;2.70;;;;;;;18.01;91.26;100372.63;5054645;28;20132;-76
2023/07/24 00:58:06;;;;;;;3.97;2.75;;;;;;;18.02;91.07;100376.09;5036777;28;20074;-76
2023/07/24 01:00:31;;;;;;;3.00;2.80;;;;;;;18.02;91.35;100373.44;5054456;28;20092;-76
2023/07/24 01:02:59;;;;;;;3.00;2.65;;;;;;;18.00;91.24;100384.16;5054673;28;20024;-76
2023/07/24 01:05:26;;;;;;;2.80;2.45;;;;;;;18.00;91.34;100381.50;5038993;28;20103;-76
2023/07/24 01:07:52;;;;;;;2.70;2.50;;;;;;;18.00;91.36;100378.88;5034487;28;20061;-76
2023/07/24 01:10:18;;;;;;;3.13;2.63;;;;;;;18.00;91.22;100388.63;5044500;28;20040;-76
2023/07/24 01:13:18;;;;;;;3.47;2.95;;;;;;;17.99;91.30;100377.19;5056346;28;20036;-76
2023/07/24 01:16:08;;;;;;;3.53;3.22;;;;;;;17.99;91.35;100378.97;5054332;28;20374;-76
2023/07/24 01:18:36;;;;;;;3.83;2.95;;;;;;;17.98;91.52;100364.06;5058161;28;20029;-76
2023/07/24 01:21:05;;;;;;;3.70;3.40;;;;;;;17.97;91.41;100365.03;5058345;28;20037;-76
2023/07/24 01:23:46;;;;;;;3.28;2.60;;;;;;;17.96;91.56;100358.88;5057815;28;20438;-76
2023/07/24 01:26:12;;;;;;;3.00;2.80;;;;;;;17.96;91.51;100358.06;5058656;28;20292;-76
2023/07/24 01:28:39;;;;;;;2.65;2.45;;;;;;;17.96;91.73;100358.06;5057906;28;20036;-76
2023/07/24 01:31:05;;;;;;;2.90;2.60;;;;;;;17.96;91.70;100358.06;5058293;28;20040;-76
2023/07/24 01:33:31;;;;;;;3.22;3.03;;;;;;;17.95;91.74;100365.13;5057648;28;20503;-76
2023/07/24 01:35:59;;;;;;;2.85;2.65;;;;;;;17.95;91.67;100362.50;5038438;28;20065;-76
2023/07/24 01:38:25;;;;;;;3.10;2.88;;;;;;;17.95;91.74;100354.53;5037781;28;20343;-76
2023/07/24 01:40:53;;;;;;;2.97;2.67;;;;;;;17.95;91.80;100356.34;5052960;28;20243;-76
2023/07/24 01:43:18;;;;;;;4.05;3.60;;;;;;;17.94;91.97;100354.69;5057676;28;20286;-76
2023/07/24 01:45:44;;;;;;;3.42;3.00;;;;;;;17.93;91.92;100353.81;5058428;28;20029;-76
2023/07/24 01:48:09;;;;;;;5.35;4.00;;;;;;;17.92;92.01;100349.50;5057790;28;20303;-76
2023/07/24 01:50:35;;;;;;;4.82;4.32;;;;;;;17.92;91.82;100354.81;5057999;28;20059;-76
2023/07/24 01:53:00;;;;;;;4.22;3.60;;;;;;;17.90;91.70;100346.16;5057879;28;20036;-76
2023/07/24 01:55:25;;;;;;;3.55;3.25;;;;;;;17.90;91.81;100342.63;5057735;28;20037;-76
2023/07/24 01:57:51;;;;;;;4.30;3.90;;;;;;;17.89;91.67;100348.91;5057894;28;20284;-76
2023/07/24 02:00:16;;;;;;;5.30;4.07;;;;;;;17.88;91.69;100350.69;5057273;28;20410;-76
2023/07/24 02:02:41;;;;;;;4.40;4.00;;;;;;;17.86;91.70;100344.69;5058477;28;20036;-77
2023/07/24 02:05:07;;;;;;;6.18;5.22;;;;;;;17.86;91.57;100339.38;5044961;28;20246;-77
2023/07/24 02:07:33;;;;;;;5.80;3.72;;;;;;;17.85;91.41;100329.75;5036783;28;20037;-77
2023/07/24 02:09:58;;;;;;;4.80;3.50;;;;;;;17.84;91.46;100320.94;5045088;28;20040;-77
2023/07/24 02:12:23;;;;;;;4.43;4.00;;;;;;;17.85;91.42;100316.53;5056775;28;20032;-77
2023/07/24 02:14:51;;;;;;;6.10;3.28;;;;;;;17.84;91.35;100317.44;5057337;28;20033;-77
2023/07/24 02:17:19;;;;;;;4.50;3.88;;;;;;;17.82;91.06;100317.56;5056908;28;20205;-77
2023/07/24 02:19:44;;;;;;;3.95;3.47;;;;;;;17.81;91.38;100312.41;5057152;28;20024;-76
2023/07/24 02:22:10;;;;;;;3.63;3.33;;;;;;;17.82;91.38;100322.84;5057178;28;20334;-77
2023/07/24 02:24:35;;;;;;;8.15;3.40;;;;;;;17.82;91.41;100319.38;5055415;28;20175;-77
2023/07/24 02:27:01;;;;;;;3.97;3.33;;;;;;;17.81;91.24;100325.66;5057104;28;20041;-76
2023/07/24 02:29:26;;;;;;;5.18;3.83;;;;;;;17.82;91.17;100324.66;5056734;28;20096;-77
2023/07/24 02:31:53;;;;;;;6.47;4.07;;;;;;;17.80;91.17;100316.00;5057307;28;20033;-77
2023/07/24 02:34:19;;;;;;;4.70;3.83;;;;;;;17.81;91.32;100312.41;5050078;28;20104;-77
2023/07/24 02:36:44;;;;;;;7.88;4.30;;;;;;;17.79;91.31;100298.41;5019060;28;20033;-77
2023/07/24 02:39:09;;;;;;;4.97;3.85;;;;;;;17.80;91.41;100305.41;5019769;28;20271;-77
2023/07/24 02:41:35;;;;;;;4.07;3.78;;;;;;;17.77;91.51;100298.56;5056695;28;20255;-76
2023/07/24 02:44:03;;;;;;;3.95;3.67;;;;;;;17.77;91.45;100285.31;5056826;28;20041;-76
2023/07/24 02:46:30;;;;;;;4.07;3.75;;;;;;;17.77;91.53;100280.03;5056353;28;20230;-76
2023/07/24 02:48:56;;;;;;;3.83;3.53;;;;;;;17.77;91.54;100280.03;5056832;28;20029;-76
2023/07/24 02:51:21;;;;;;;5.88;4.13;;;;;;;17.77;91.67;100289.75;5056012;28;20260;-76
2023/07/24 02:53:46;;;;;;;4.60;3.70;;;;;;;17.76;91.59;100299.53;5057007;28;20043;-76
2023/07/24 02:56:12;;;;;;;4.70;4.25;;;;;;;17.76;91.69;100296.88;5056902;28;20036;-76
2023/07/24 02:58:37;;;;;;;4.68;4.28;;;;;;;17.75;91.78;100276.63;5056645;28;20044;-76
2023/07/24 03:01:07;;;;;;;5.80;3.60;;;;;;;17.75;91.70;100278.44;5056475;28;20041;-76
2023/07/24 03:03:33;;;;;;;5.38;4.40;;;;;;;17.75;91.56;100294.34;5056214;28;20047;-76
2023/07/24 03:05:58;;;;;;;3.88;3.53;;;;;;;17.73;91.78;100307.69;5016474;28;20094;-76
2023/07/24 03:08:24;;;;;;;4.40;4.00;;;;;;;17.73;91.83;100291.81;5015648;28;20045;-76
2023/07/24 03:10:49;;;;;;;7.28;3.80;;;;;;;17.72;91.85;100289.28;5046106;28;20100;-76
2023/07/24 03:13:14;;;;;;;4.50;3.97;;;;;;;17.73;91.79;100301.56;5055935;28;20033;-76
2023/07/24 03:15:40;;;;;;;5.40;4.57;;;;;;;17.71;91.83;100306.97;5055773;28;20047;-76
2023/07/24 03:18:05;;;;;;;4.28;3.85;;;;;;;17.72;91.95;100300.72;5056245;28;20036;-76
2023/07/24 03:20:30;;;;;;;4.57;3.80;;;;;;;17.72;92.00;100295.44;5055355;28;20040;-76
2023/07/24 03:22:56;;;;;;;5.97;4.03;;;;;;;17.70;92.06;100286.78;5056097;28;20024;-76
2023/07/24 03:25:22;;;;;;;5.32;4.53;;;;;;;17.70;91.85;100297.38;5055295;28;20024;-76
2023/07/24 03:27:47;;;;;;;6.10;4.50;;;;;;;17.69;92.03;100297.47;5055785;28;20032;-76
2023/07/24 03:30:12;;;;;;;4.75;3.95;;;;;;;17.68;92.09;100285.19;5056158;28;20040;-76
2023/07/24 03:32:38;;;;;;;4.20;3.80;;;;;;;17.68;92.03;100291.31;5055275;28;20040;-76
2023/07/24 03:35:05;;;;;;;4.65;4.25;;;;;;;17.67;91.90;100283.53;5043121;28;20033;-76
2023/07/24 03:37:31;;;;;;;4.88;4.40;;;;;;;17.67;91.79;100284.34;5035117;28;20205;-76
2023/07/24 03:39:56;;;;;;;5.32;3.78;;;;;;;17.65;91.75;100287.13;5042259;28;20025;-76
2023/07/24 03:42:29;;;;;;;4.10;3.63;;;;;;;17.65;91.76;100289.78;5053663;28;20037;-76
2023/07/24 03:44:55;;;;;;;5.25;3.60;;;;;;;17.65;91.85;100283.66;5054426;28;20146;-75
2023/07/24 03:47:20;;;;;;;4.25;3.85;;;;;;;17.63;91.72;100273.16;5053834;28;20029;-76
2023/07/24 03:49:46;;;;;;;7.03;4.15;;;;;;;17.63;91.67;100278.47;5054337;28;20037;-76
2023/07/24 03:52:11;;;;;;;5.50;3.83;;;;;;;17.62;91.36;100281.22;5054290;28;20338;-76
2023/07/24 03:54:37;;;;;;;4.15;3.75;;;;;;;17.62;91.16;100281.22;5054784;28;20032;-76
2023/07/24 03:57:03;;;;;;;5.57;3.80;;;;;;;17.60;90.81;100277.88;5055352;28;20205;-75
2023/07/24 03:59:28;;;;;;;8.15;4.20;;;;;;;17.58;90.70;100275.34;5054738;28;20065;-76
2023/07/24 04:01:53;;;;;;;7.32;4.47;;;;;;;17.57;90.72;100278.97;5055245;28;20371;-76
2023/07/24 04:04:20;;;;;;;6.20;3.45;;;;;;;17.57;90.50;100281.59;5048678;28;20040;-76
2023/07/24 04:06:46;;;;;;;4.95;3.35;;;;;;;17.57;90.71;100278.09;5035477;28;20041;-76
2023/07/24 04:09:14;;;;;;;6.18;3.28;;;;;;;17.54;90.59;100279.19;5036276;28;20130;-76
2023/07/24 04:11:40;;;;;;;6.05;3.20;;;;;;;17.54;90.72;100281.84;5054594;28;20092;-76
2023/07/24 04:14:05;;;;;;;8.85;4.10;;;;;;;17.52;90.51;100289.06;5055240;28;20032;-76
2023/07/24 04:16:31;;;;;;;10.68;3.90;;;;;;;17.51;90.34;100284.72;5054823;28;20091;-76
2023/07/24 04:18:56;;;;;;;4.28;3.80;;;;;;;17.50;90.44;100279.53;5055091;28;20084;-76
2023/07/24 04:21:22;;;;;;;5.72;3.50;;;;;;;17.49;90.38;100283.16;5054108;28;20036;-76
2023/07/24 04:23:48;;;;;;;12.68;4.50;;;;;;;17.48;90.31;100284.94;5055255;28;20349;-76
2023/07/24 04:26:13;;;;;;;4.50;3.35;;;;;;;17.46;90.24;100285.09;5054792;28;20096;-76
2023/07/24 04:28:38;;;;;;;3.95;2.90;;;;;;;17.46;90.13;100289.53;5054223;28;20064;-76
2023/07/24 04:31:04;;;;;;;6.00;3.53;;;;;;;17.45;90.22;100296.63;5054710;28;20029;-76
2023/07/24 04:33:29;;;;;;;7.85;3.78;;;;;;;17.44;90.16;100297.63;5054205;28;20043;-76
2023/07/24 04:35:55;;;;;;;4.38;3.22;;;;;;;17.43;90.16;100303.84;5035526;28;20048;-76
2023/07/24 04:38:21;;;;;;;4.57;3.15;;;;;;;17.43;89.86;100298.56;5034306;28;20088;-76
2023/07/24 04:40:46;;;;;;;7.47;3.58;;;;;;;17.41;89.82;100297.84;5049596;28;20228;-76
2023/07/24 04:43:12;;;;;;;7.40;3.45;;;;;;;17.41;90.00;100292.56;5054961;28;20032;-76
2023/07/24 04:45:37;;;;;;;5.05;3.25;;;;;;;17.41;90.02;100294.38;5054370;28;20060;-76
2023/07/24 04:48:02;;;;;;;5.05;3.20;;;;;;;17.40;90.21;100293.50;5057258;28;20039;-76
2023/07/24 04:50:28;;;;;;;5.63;3.08;;;;;;;17.39;90.04;100289.19;5058177;28;20059;-76
2023/07/24 04:52:53;;;;;;;5.13;3.28;;;;;;;17.40;90.10;100293.50;5058568;28;20037;-76
2023/07/24 04:55:18;;;;;;;8.52;3.45;;;;;;;17.39;89.78;100285.69;5058190;28;20040;-76
2023/07/24 04:57:44;;;;;;;4.03;2.78;;;;;;;17.37;89.89;100291.13;5058808;28;20029;-75
2023/07/24 05:00:10;;;;;;;4.88;3.10;;;;;;;17.37;89.87;100293.75;5058589;28;20040;-76
2023/07/24 05:02:35;;;;;;;7.55;3.80;;;;;;;17.36;89.99;100294.72;5058002;28;20025;-76
2023/07/24 05:05:00;;;;;;;5.78;2.80;;;;;;;17.36;89.97;100292.06;5046771;28;20161;-75
2023/07/24 05:07:26;;;;;;;5.75;3.20;;;;;;;17.35;89.97;100282.44;5038115;28;20072;-76
2023/07/24 05:09:51;;;;;;;6.53;3.38;;;;;;;17.34;90.03;100278.13;5045234;28;20257;-76
2023/07/24 05:12:17;;;;;;;5.90;3.30;;;;;;;17.34;89.88;100286.06;5057924;28;20082;-76
2023/07/24 05:14:42;;;;;;;3.88;2.70;;;;;;;17.33;89.78;100279.06;5058434;28;20070;-76
2023/07/24 05:17:07;;;;;;;3.95;3.20;;;;;;;17.34;89.71;100287.88;5058589;28;20257;-76
2023/07/24 05:19:33;;;;;;;3.92;3.00;;;;;;;17.34;89.88;100279.94;5058085;28;20474;-76
2023/07/24 05:21:59;;;;;;;4.78;2.90;;;;;;;17.33;90.01;100273.75;5058552;28;20111;-75
2023/07/24 05:24:24;;;;;;;5.78;3.42;;;;;;;17.33;89.88;100276.41;5058229;28;20096;-75
2023/07/24 05:26:50;;;;;;;4.68;2.88;;;;;;;17.32;89.43;100280.03;5058147;28;20381;-76
2023/07/24 05:29:15;;;;;;;6.20;2.83;;;;;;;17.32;89.39;100280.03;5058198;28;20075;-76
2023/07/24 05:31:41;;;;;;;3.97;2.55;;;;;;;17.32;89.31;100280.03;5057986;28;20033;-76
2023/07/24 05:34:06;;;;;;;4.20;2.80;;;;;;;17.31;89.48;100278.34;5053728;28;20362;-76
2023/07/24 05:36:31;;;;;;;5.03;3.25;;;;;;;17.31;89.42;100283.63;5037508;28;20427;-76
2023/07/24 05:38:57;;;;;;;3.63;2.95;;;;;;;17.30;88.98;100283.75;5037421;28;20099;-76
2023/07/24 05:41:23;;;;;;;7.18;3.20;;;;;;;17.30;89.42;100284.63;5056646;28;20029;-76
2023/07/24 05:43:48;;;;;;;4.30;2.78;;;;;;;17.30;89.49;100284.63;5057810;28;20025;-76
2023/07/24 05:46:13;;;;;;;5.68;3.20;;;;;;;17.29;89.57;100285.56;5057918;28;20031;-76
2023/07/24 05:48:39;;;;;;;5.25;2.92;;;;;;;17.29;89.62;100285.56;5057180;28;20029;-76
2023/07/24 05:51:04;;;;;;;6.03;2.95;;;;;;;17.30;89.58;100286.41;5058215;28;20108;-76
2023/07/24 05:53:30;;;;;;;3.13;2.50;;;;;;;17.30;89.58;100289.91;5056999;28;20327;-76
2023/07/24 05:56:02;;;;;;;6.13;2.78;;;;;;;17.30;89.45;100287.25;5057565;28;20107;-76
2023/07/24 05:58:27;;;;;;;4.63;2.70;;;;;;;17.31;89.25;100288.09;5057405;28;20033;-76
2023/07/24 06:00:54;;;;;;;4.07;2.80;;;;;;;17.31;89.45;100290.75;5057545;28;20032;-76
2023/07/24 06:03:19;;;;;;;5.40;2.90;;;;;;;17.32;89.35;100295.06;5056942;28;20024;-76
2023/07/24 06:05:45;;;;;;;5.30;2.70;;;;;;;17.31;88.90;100291.56;5038694;28;20401;-76
2023/07/24 06:08:11;;;;;;;4.50;2.60;;;;;;;17.32;89.19;100284.47;5036481;28;20072;-76
2023/07/24 06:10:36;;;;;;;7.05;2.72;;;;;;;17.33;89.49;100296.75;5049375;28;20055;-76
2023/07/24 06:13:02;;;;;;;6.90;2.70;;;;;;;17.32;88.89;100295.91;5057425;28;20033;-76
2023/07/24 06:15:27;;;;;;;5.28;2.80;;;;;;;17.34;89.25;100306.38;5057127;28;20072;-76
2023/07/24 06:17:53;;;;;;;6.00;3.20;;;;;;;17.33;89.08;100304.69;5057258;28;20032;-76
2023/07/24 06:20:18;;;;;;;6.97;2.85;;;;;;;17.33;89.27;100308.16;5056692;28;20028;-76
2023/07/24 06:22:44;;;;;;;7.63;2.97;;;;;;;17.32;89.24;100309.16;5056955;28;20100;-76
2023/07/24 06:25:09;;;;;;;6.45;2.97;;;;;;;17.33;89.43;100316.13;5057149;28;20036;-76
2023/07/24 06:27:34;;;;;;;7.93;2.88;;;;;;;17.33;89.26;100305.53;5056500;28;20218;-76
2023/07/24 06:30:00;;;;;;;8.00;3.20;;;;;;;17.33;89.47;100309.97;5057048;28;20099;-76
2023/07/24 06:32:25;;;;;;;9.93;2.80;;;;;;;17.34;89.50;100314.34;5056406;28;20032;-76
2023/07/24 06:34:50;;;;;;;5.78;2.92;;;;;;;17.35;89.48;100310.69;5042767;28;20343;-76
2023/07/24 06:37:16;;;;;;;4.85;3.05;;;;;;;17.35;89.62;100314.19;5021512;28;20064;-76
2023/07/24 06:39:41;;;;;;;3.22;2.60;;;;;;;17.36;89.45;100307.09;5026282;28;20032;-76
2023/07/24 06:42:07;;;;;;;8.23;3.10;;;;;;;17.37;89.32;100308.78;5016239;28;20022;-76
2023/07/24 06:44:33;;;;;;;6.45;3.25;;;;;;;17.37;89.28;100317.59;5029444;28;20092;-76
2023/07/24 06:46:58;;;;;;;6.68;3.03;;;;;;;17.38;89.47;100323.72;5023285;28;20264;-76
2023/07/24 06:49:23;;;;;;;9.10;3.10;;;;;;;17.38;89.28;100316.59;5021340;28;20358;-76
2023/07/24 06:51:49;;;;;;;3.83;2.42;;;;;;;17.39;89.37;100323.59;5022458;28;20033;-75
2023/07/24 06:54:14;;;;;;;4.05;2.80;;;;;;;17.41;89.26;100321.66;5021813;28;20033;-76
2023/07/24 06:56:39;;;;;;;7.95;3.22;;;;;;;17.42;89.56;100312.75;5024901;28;20033;-76
2023/07/24 06:59:05;;;;;;;8.75;2.97;;;;;;;17.44;89.33;100318.78;5026628;28;20080;-76
2023/07/24 07:01:30;;;;;;;5.88;2.80;;;;;;;17.46;89.59;100314.22;5015338;28;20360;-76
2023/07/24 07:03:55;;;;;;;5.53;3.03;;;;;;;17.49;89.58;100312.28;5025962;28;20092;-76
2023/07/24 07:06:21;;;;;;;4.22;2.65;;;;;;;17.51;89.85;100311.19;5028885;28;20306;-76
2023/07/24 07:08:46;;;;;;;3.60;2.22;;;;;;;17.53;90.02;100313.72;5037572;28;20041;-76
2023/07/24 07:11:12;;;;;;;7.25;3.20;;;;;;;17.54;89.83;100313.63;5024777;28;20037;-76
2023/07/24 07:13:37;;;;;;;6.72;3.13;;;;;;;17.57;89.90;100309.88;5026251;28;20093;-76
2023/07/24 07:16:03;;;;;;;5.45;2.60;;;;;;;17.58;89.81;100300.97;5030893;28;20079;-76
2023/07/24 07:18:28;;;;;;;6.70;2.63;;;;;;;17.60;89.65;100307.81;5014712;28;20037;-76
2023/07/24 07:20:54;;;;;;;3.83;2.83;;;;;;;17.63;89.85;100301.47;5035646;28;20030;-76
2023/07/24 07:23:20;;;;;;;6.70;3.08;;;;;;;17.64;89.59;100300.47;5046577;28;20064;-76
2023/07/24 07:25:46;;;;;;;5.60;3.05;;;;;;;17.64;89.69;100296.06;5055562;28;20103;-76
2023/07/24 07:28:16;;;;;;;5.60;2.70;;;;;;;17.68;89.72;100287.84;5045197;28;20049;-76
2023/07/24 07:30:41;;;;;;;8.38;3.22;;;;;;;17.69;89.68;100293.03;5050596;28;20041;-76
2023/07/24 07:33:07;;;;;;;8.43;3.58;;;;;;;17.73;89.76;100283.88;5045089;28;20033;-76
2023/07/24 07:35:33;;;;;;;7.35;3.30;;;;;;;17.76;89.67;100288.94;5039781;28;20126;-76
2023/07/24 07:37:59;;;;;;;8.15;3.05;;;;;;;17.79;89.92;100287.81;5038900;28;20036;-76
2023/07/24 07:40:26;;;;;;;3.25;2.90;;;;;;;17.82;89.69;100282.28;5043044;28;20467;-76
2023/07/24 07:42:52;;;;;;;4.35;2.80;;;;;;;17.83;89.81;100271.59;5039260;28;20354;-76
2023/07/24 07:45:18;;;;;;;6.13;3.53;;;;;;;17.88;89.54;100281.00;5042886;28;20021;-76
2023/07/24 07:47:43;;;;;;;4.95;2.70;;;;;;;17.87;89.07;100288.09;5039460;28;20040;-76
2023/07/24 07:50:09;;;;;;;6.15;3.17;;;;;;;17.90;88.88;100287.00;5044140;28;20031;-76
2023/07/24 07:52:34;;;;;;;6.00;2.70;;;;;;;17.90;88.76;100284.34;5040385;28;20036;-76
2023/07/24 07:55:00;;;;;;;6.28;2.80;;;;;;;17.91;88.84;100294.84;5043431;28;20022;-76
2023/07/24 07:57:25;;;;;;;6.57;3.05;;;;;;;17.91;88.61;100289.53;5041096;28;20201;-76
2023/07/24 07:59:50;;;;;;;8.75;3.28;;;;;;;17.92;88.69;100287.72;5037975;28;20275;-76
2023/07/24 08:02:16;;;;;;;3.58;2.58;;;;;;;17.92;88.61;100300.97;5041750;28;20091;-76
2023/07/24 08:04:41;;;;;;;4.85;2.83;;;;;;;17.92;88.52;100298.31;5032021;28;20040;-76
2023/07/24 08:07:06;;;;;;;8.15;3.20;;;;;;;17.93;88.61;100297.38;5039811;28;20037;-76
2023/07/24 08:09:33;;;;;;;12.18;3.60;;;;;;;17.93;88.82;100292.06;5032752;28;20029;-76
2023/07/24 08:11:59;;;;;;;4.72;2.80;;;;;;;17.94;88.91;100288.47;5039785;28;20037;-76
2023/07/24 08:14:24;;;;;;;4.50;2.92;;;;;;;17.96;89.09;100289.19;5037942;28;20041;-76
2023/07/24 08:16:50;;;;;;;3.50;2.72;;;;;;;17.97;88.97;100290.84;5042515;28;20086;-76
2023/07/24 08:19:15;;;;;;;5.97;3.00;;;;;;;17.99;88.76;100288.91;5035697;28;20228;-76
2023/07/24 08:21:41;;;;;;;4.90;2.97;;;;;;;17.99;88.88;100297.72;5043066;28;20035;-76
2023/07/24 08:24:07;;;;;;;7.53;3.70;;;;;;;17.99;89.04;100292.41;5051910;28;20322;-76
2023/07/24 08:26:32;;;;;;;5.15;3.10;;;;;;;18.01;88.97;100293.13;5053955;28;20070;-76
2023/07/24 08:28:58;;;;;;;4.03;2.90;;;;;;;18.03;88.76;100298.31;5044386;28;20324;-76
2023/07/24 08:31:23;;;;;;;4.57;2.90;;;;;;;18.06;88.67;100299.88;5054254;28;20056;-76
2023/07/24 08:33:49;;;;;;;6.40;3.33;;;;;;;18.07;88.74;100294.44;5050908;28;20028;-76
2023/07/24 08:36:14;;;;;;;3.35;2.80;;;;;;;18.07;88.25;100285.66;5034703;28;20104;-76
2023/07/24 08:38:41;;;;;;;7.07;2.88;;;;;;;18.09;88.25;100289.03;5041661;28;20033;-76
2023/07/24 08:41:10;;;;;;;3.42;2.47;;;;;;;18.10;88.10;100296.00;5054588;28;20081;-76
2023/07/24 08:43:37;;;;;;;3.72;2.47;;;;;;;18.11;88.03;100292.38;5052442;28;20344;-76
2023/07/24 08:46:04;;;;;;;6.15;3.50;;;;;;;18.12;88.03;100288.75;5054830;28;20043;-76
2023/07/24 08:48:35;;;;;;;9.02;3.10;;;;;;;18.13;88.26;100283.34;5045854;28;20327;-76
2023/07/24 08:51:02;;;;;;;8.38;3.10;;;;;;;18.15;88.43;100283.22;5033049;28;20029;-76
2023/07/24 08:53:28;;;;;;;7.30;3.47;;;;;;;18.18;88.80;100282.97;5019309;28;20034;-76
2023/07/24 08:55:55;;;;;;;4.20;3.13;;;;;;;18.20;88.63;100276.56;5045590;28;20028;-76
2023/07/24 08:58:20;;;;;;;6.22;3.60;;;;;;;18.22;88.87;100271.97;5041365;28;20108;-76
2023/07/24 09:00:46;;;;;;;3.38;2.75;;;;;;;18.27;88.52;100276.91;5052202;28;20228;-76
2023/07/24 09:03:11;;;;;;;5.28;2.85;;;;;;;18.30;88.06;100270.50;5054330;28;20031;-76
2023/07/24 09:05:37;;;;;;;5.95;3.20;;;;;;;18.31;88.11;100273.03;5036643;28;20057;-76
2023/07/24 09:08:02;;;;;;;8.20;2.90;;;;;;;18.32;87.60;100272.09;5042426;28;20113;-76
2023/07/24 09:10:28;;;;;;;6.95;2.50;;;;;;;18.33;87.40;100267.63;5037195;28;20037;-76
2023/07/24 09:12:55;;;;;;;4.85;3.10;;;;;;;18.34;87.21;100271.97;5034184;28;20049;-76
2023/07/24 09:15:21;;;;;;;4.82;2.40;;;;;;;18.34;86.77;100274.63;5037129;28;20037;-76
2023/07/24 09:17:50;;;;;;;5.05;2.80;;;;;;;18.34;86.75;100267.50;5042930;28;20029;-76
2023/07/24 09:20:17;;;;;;;5.20;2.40;;;;;;;18.37;86.88;100263.75;5048150;28;20360;-76
2023/07/24 09:22:52;;;;;;;5.90;2.88;;;;;;;18.38;86.99;100268.09;5042245;28;20072;-76
2023/07/24 09:25:18;;;;;;;8.27;2.97;;;;;;;18.39;87.13;100259.16;5039576;28;20114;-76
2023/07/24 09:27:44;;;;;;;3.45;2.22;;;;;;;18.41;86.96;100257.25;5049918;28;20336;-76
2023/07/24 09:30:14;;;;;;;2.80;2.22;;;;;;;18.42;86.81;100261.56;5034047;28;20100;-76
2023/07/24 09:32:40;;;;;;;3.85;2.60;;;;;;;18.44;86.67;100264.09;5025530;28;20056;-76
2023/07/24 09:35:17;;;;;;;4.82;2.47;;;;;;;18.46;87.09;100264.78;5037890;28;20026;-76
2023/07/24 09:37:43;;;;;;;4.13;2.90;;;;;;;18.47;86.91;100279.75;5046703;28;20251;-76
2023/07/24 09:40:09;;;;;;;2.35;2.10;;;;;;;18.48;86.50;100270.81;5050833;28;20040;-76
2023/07/24 09:42:36;;;;;;;2.97;2.65;;;;;;;18.49;86.79;100264.56;5048165;28;20079;-76
2023/07/24 09:45:03;;;;;;;5.35;2.67;;;;;;;18.49;86.77;100273.34;5038529;28;20092;-76
2023/07/24 09:47:29;;;;;;;3.45;2.40;;;;;;;18.49;86.43;100260.09;5035717;28;20366;-76
2023/07/24 09:49:55;;;;;;;4.25;2.42;;;;;;;18.49;86.33;100269.84;5051242;28;20267;-76
2023/07/24 09:52:21;;;;;;;4.22;2.55;;;;;;;18.49;86.35;100264.56;5056709;28;20021;-76
2023/07/24 09:54:56;;;;;;;3.45;2.20;;;;;;;18.49;86.27;100264.56;5043484;28;20029;-76
2023/07/24 09:57:23;;;;;;;3.90;2.40;;;;;;;18.48;86.30;100270.81;5057235;28;20021;-76
2023/07/24 09:59:51;;;;;;;3.90;2.80;;;;;;;18.48;85.91;100273.47;5047186;28;20087;-76
2023/07/24 10:02:17;;;;;;;2.70;2.45;;;;;;;18.48;86.00;100268.16;5050954;28;20265;-76
2023/07/24 10:04:44;;;;;;;2.67;2.40;;;;;;;18.47;85.78;100272.63;5042559;28;20038;-76
2023/07/24 10:07:10;;;;;;;4.38;2.90;;;;;;;18.47;85.68;100263.84;5042067;28;20086;-76
2023/07/24 10:09:36;;;;;;;4.45;3.20;;;;;;;18.46;85.53;100264.78;5051682;28;20092;-76
2023/07/24 10:12:02;;;;;;;4.38;3.40;;;;;;;18.47;85.42;100266.50;5057224;28;20044;-76
2023/07/24 10:14:30;;;;;;;3.72;2.78;;;;;;;18.48;86.03;100276.97;5044882;28;20056;-76
2023/07/24 10:16:56;;;;;;;5.13;2.78;;;;;;;18.51;85.84;100258.13;5056091;28;20025;-77
2023/07/24 10:19:22;;;;;;;5.68;3.40;;;;;;;18.53;86.01;100258.84;5052109;28;20290;-76
2023/07/24 10:21:48;;;;;;;3.30;3.00;;;;;;;18.56;86.00;100245.34;5057136;28;20036;-76
2023/07/24 10:24:17;;;;;;;11.57;3.88;;;;;;;18.61;85.86;100258.22;5047201;28;20036;-76
2023/07/24 10:26:42;;;;;;;6.70;3.03;;;;;;;18.64;86.01;100257.94;5054337;28;20036;-76
2023/07/24 10:29:09;;;;;;;4.13;3.25;;;;;;;18.67;85.75;100255.06;5052915;28;20029;-76
2023/07/24 10:31:35;;;;;;;4.38;2.97;;;;;;;18.69;85.82;100242.50;5047450;28;20041;-76
2023/07/24 10:34:05;;;;;;;4.32;2.78;;;;;;;18.73;86.01;100249.22;5041335;28;20367;-76
2023/07/24 10:36:35;;;;;;;6.20;3.20;;;;;;;18.77;86.15;100249.81;5036379;28;20323;-76
2023/07/24 10:39:01;;;;;;;7.05;3.30;;;;;;;18.79;85.33;100256.69;5052867;28;20029;-76
2023/07/24 10:41:37;;;;;;;2.65;2.45;;;;;;;18.82;84.98;100255.59;5055972;28;20033;-76
2023/07/24 10:44:02;;;;;;;8.85;2.92;;;;;;;18.83;84.97;100249.34;5050045;28;20037;-76
2023/07/24 10:46:41;;;;;;;3.28;2.65;;;;;;;18.86;84.92;100250.88;5042751;28;20037;-76
2023/07/24 10:49:08;;;;;;;5.30;2.85;;;;;;;18.88;84.95;100248.94;5028105;28;20060;-76
2023/07/24 10:51:35;;;;;;;4.75;3.10;;;;;;;18.90;85.05;100247.84;5053743;28;20040;-76
2023/07/24 10:54:02;;;;;;;3.72;3.08;;;;;;;18.93;84.97;100244.06;5050647;28;20033;-77
2023/07/24 10:56:27;;;;;;;4.05;3.05;;;;;;;18.97;85.05;100250.78;5050976;28;20037;-76
2023/07/24 10:58:53;;;;;;;4.80;3.00;;;;;;;18.99;84.92;100249.72;5054026;28;20362;-76
2023/07/24 11:01:18;;;;;;;2.97;2.78;;;;;;;19.04;84.80;100254.59;5055758;28;20056;-76
2023/07/24 11:03:44;;;;;;;4.53;3.00;;;;;;;19.09;84.77;100262.19;5042995;28;20167;-76
2023/07/24 11:06:15;;;;;;;4.47;3.15;;;;;;;19.11;84.58;100262.91;5016439;28;20252;-77
2023/07/24 11:08:40;;;;;;;3.25;2.97;;;;;;;19.11;84.35;100271.69;5035438;28;20048;-76
2023/07/24 11:11:08;;;;;;;5.22;3.10;;;;;;;19.11;84.27;100278.81;5043199;28;20322;-76
2023/07/24 11:13:34;;;;;;;4.47;3.13;;;;;;;19.11;83.93;100271.69;5041843;28;20029;-76
2023/07/24 11:16:05;;;;;;;3.47;3.10;;;;;;;19.12;83.89;100264.59;5039450;28;20057;-76
2023/07/24 11:18:30;;;;;;;4.47;3.22;;;;;;;19.11;84.04;100273.50;5042631;28;20021;-76
2023/07/24 11:20:56;;;;;;;3.33;2.97;;;;;;;19.11;84.10;100265.56;5038734;28;20398;-76